KSDM

Brown Field Municipal Airport

San Diego, California, USA
METAR KSDM 211953Z VRB06KT 10SM CLR 16/03 A3026 RMK AO2 SLP247 T01610028 $
Observed Flight Rules
Jan-21 @ 19:53 UTC (27 minutes ago) Visual Flight Rules
Wind Visibility Clouds
Variable at 6 knots 10 miles
  • Clear skies
Temperatures Readings
Current 16°C / 61°F
Dewpoint 3°C / 37°F
Humidity 42%
Altimeter 30.26" Hg
Pressure 1024.7 hPa
Elevation 159
METAR KSDM 211953Z VRB06KT 10SM CLR 16/03 A3026 RMK AO2 SLP247 T01610028 $
Observed Flight Rules
Jan-21 @ 19:53 UTC
(27 minutes ago)
VFR
Wind Visibility
Variable at 6 knots 10 miles
Clouds
  • Clear skies
Temperature Dewpoint
16°C / 61°F 3°C / 37°F
Humidity Altimeter Pressure
42% 30.26" Hg 1024.7 hPa